createdAt,value
2018-10-09T00:02:12.286Z,97.54
2018-10-09T00:04:39.496Z,96.07
2018-10-09T00:07:06.767Z,96.87
2018-10-09T00:09:33.974Z,96.96
2018-10-09T00:12:01.233Z,97.76
2018-10-09T00:14:28.521Z,97.46
2018-10-09T00:16:55.783Z,96.75
2018-10-09T00:19:22.999Z,97.31
2018-10-09T00:21:50.252Z,97.08
2018-10-09T00:24:17.469Z,95.98
2018-10-09T00:26:44.716Z,98.23
2018-10-09T00:29:11.945Z,99.78
2018-10-09T00:31:39.269Z,100.00
2018-10-09T00:34:06.547Z,99.65
2018-10-09T00:36:34.349Z,99.34
2018-10-09T00:39:01.585Z,100.00
2018-10-09T00:41:28.783Z,100.00
2018-10-09T00:43:56.058Z,100.00
2018-10-09T00:46:23.282Z,100.00
2018-10-09T00:48:50.481Z,100.00
2018-10-09T00:51:17.748Z,100.00
2018-10-09T00:53:44.996Z,100.00
2018-10-09T00:56:12.283Z,100.00
2018-10-09T00:58:39.592Z,100.00
2018-10-09T01:01:06.836Z,100.00
2018-10-09T01:03:34.077Z,100.00
2018-10-09T01:06:01.437Z,100.00
2018-10-09T01:08:28.681Z,100.00
2018-10-09T01:10:55.920Z,100.00
2018-10-09T01:13:23.182Z,100.00
2018-10-09T01:15:50.372Z,100.00
2018-10-09T01:18:17.616Z,100.00
2018-10-09T01:20:44.894Z,100.00
2018-10-09T01:23:12.163Z,100.00
2018-10-09T01:25:39.395Z,100.00
2018-10-09T01:28:06.614Z,100.00
2018-10-09T01:30:34.249Z,100.00
2018-10-09T01:33:01.897Z,100.00
2018-10-09T01:35:29.149Z,100.00
2018-10-09T01:37:56.366Z,100.00
2018-10-09T01:40:23.630Z,100.00
2018-10-09T01:42:50.850Z,100.00
2018-10-09T01:45:18.099Z,100.00
2018-10-09T01:47:45.374Z,100.00
2018-10-09T01:50:12.596Z,100.00
2018-10-09T01:52:39.815Z,100.00
2018-10-09T01:55:07.223Z,100.00
2018-10-09T01:57:34.588Z,100.00
2018-10-09T02:00:01.908Z,100.00
2018-10-09T02:02:29.105Z,100.00
2018-10-09T02:04:56.375Z,100.00
2018-10-09T02:07:23.634Z,100.00
2018-10-09T02:09:51.744Z,100.00
2018-10-09T02:12:18.999Z,100.00
2018-10-09T02:14:46.163Z,100.00
2018-10-09T02:17:13.436Z,100.00
2018-10-09T02:19:40.633Z,100.00
2018-10-09T02:22:07.836Z,100.00
2018-10-09T02:24:34.993Z,100.00
2018-10-09T02:27:02.266Z,100.00
2018-10-09T02:29:29.570Z,100.00
2018-10-09T02:31:56.774Z,100.00
2018-10-09T02:34:24.001Z,100.00
2018-10-09T02:36:51.287Z,100.00
2018-10-09T02:39:18.529Z,100.00
2018-10-09T02:41:45.753Z,100.00
2018-10-09T02:44:12.962Z,100.00
2018-10-09T02:46:40.163Z,100.00
2018-10-09T02:49:07.435Z,100.00
2018-10-09T02:51:35.028Z,100.00
2018-10-09T02:54:02.279Z,100.00
2018-10-09T02:56:29.516Z,100.00
2018-10-09T02:58:56.729Z,100.00
2018-10-09T03:01:23.949Z,100.00
2018-10-09T03:03:51.232Z,100.00
2018-10-09T03:06:18.469Z,100.00
2018-10-09T03:08:45.716Z,100.00
2018-10-09T03:11:12.980Z,100.00
2018-10-09T03:13:40.316Z,100.00
2018-10-09T03:16:07.742Z,100.00
2018-10-09T03:18:34.976Z,100.00
2018-10-09T03:21:02.225Z,100.00
2018-10-09T03:23:29.487Z,100.00
2018-10-09T03:25:56.672Z,100.00
2018-10-09T03:28:23.914Z,100.00
2018-10-09T03:30:51.243Z,100.00
2018-10-09T03:33:18.528Z,100.00
2018-10-09T03:35:45.707Z,100.00
2018-10-09T03:38:12.920Z,100.00
2018-10-09T03:40:40.191Z,100.00
2018-10-09T03:43:07.440Z,100.00
2018-10-09T03:45:34.855Z,100.00
2018-10-09T03:48:02.066Z,100.00
2018-10-09T03:50:29.347Z,100.00
2018-10-09T03:52:56.638Z,100.00
2018-10-09T03:55:23.896Z,100.00
2018-10-09T03:57:51.201Z,100.00
2018-10-09T04:00:18.517Z,100.00
2018-10-09T04:02:45.727Z,100.00
2018-10-09T04:05:12.980Z,100.00
2018-10-09T04:07:40.260Z,100.00
2018-10-09T04:10:07.721Z,100.00
2018-10-09T04:12:34.983Z,100.00
2018-10-09T04:15:02.417Z,100.00
2018-10-09T04:17:29.648Z,100.00
2018-10-09T04:19:56.881Z,100.00
2018-10-09T04:22:24.121Z,100.00
2018-10-09T04:24:51.356Z,100.00
2018-10-09T04:27:19.644Z,100.00
2018-10-09T04:29:46.998Z,100.00
2018-10-09T04:32:14.265Z,100.00
2018-10-09T04:34:41.635Z,100.00
2018-10-09T04:37:09.085Z,100.00
2018-10-09T04:39:36.337Z,100.00
2018-10-09T04:42:03.666Z,100.00
2018-10-09T04:44:30.969Z,100.00
2018-10-09T04:46:58.456Z,100.00
2018-10-09T04:49:25.764Z,100.00
2018-10-09T04:51:53.073Z,100.00
2018-10-09T04:54:20.362Z,100.00
2018-10-09T04:56:47.682Z,100.00
2018-10-09T04:59:14.958Z,100.00
2018-10-09T05:01:42.210Z,100.00
2018-10-09T05:04:09.609Z,100.00
2018-10-09T05:06:36.928Z,100.00
2018-10-09T05:09:07.472Z,100.00
2018-10-09T05:11:34.717Z,100.00
2018-10-09T05:14:02.005Z,100.00
2018-10-09T05:16:29.224Z,100.00
2018-10-09T05:18:56.452Z,100.00
2018-10-09T05:21:23.712Z,100.00
2018-10-09T05:23:50.977Z,100.00
2018-10-09T05:26:18.293Z,100.00
2018-10-09T05:28:45.598Z,100.00
2018-10-09T05:31:12.892Z,100.00
2018-10-09T05:33:40.069Z,100.00
2018-10-09T05:36:07.364Z,100.00
2018-10-09T05:38:34.653Z,100.00
2018-10-09T05:41:01.953Z,100.00
2018-10-09T05:43:29.167Z,100.00
2018-10-09T05:45:56.473Z,100.00
2018-10-09T05:48:23.741Z,100.00
2018-10-09T05:50:50.953Z,100.00
2018-10-09T05:53:18.284Z,100.00
2018-10-09T05:55:45.542Z,100.00
2018-10-09T05:58:12.895Z,100.00
2018-10-09T06:00:40.008Z,100.00
2018-10-09T06:03:07.313Z,100.00
2018-10-09T06:05:34.589Z,100.00
2018-10-09T06:08:01.850Z,100.00
2018-10-09T06:10:29.092Z,100.00
2018-10-09T06:12:56.290Z,100.00
2018-10-09T06:15:23.604Z,100.00
2018-10-09T06:17:50.957Z,100.00
2018-10-09T06:20:18.207Z,100.00
2018-10-09T06:22:45.484Z,100.00
2018-10-09T06:25:12.756Z,100.00
2018-10-09T06:27:40.118Z,100.00
2018-10-09T06:30:07.482Z,100.00
2018-10-09T06:32:34.783Z,100.00
2018-10-09T06:35:03.102Z,100.00
2018-10-09T06:37:30.503Z,100.00
2018-10-09T06:39:57.890Z,100.00
2018-10-09T06:42:25.268Z,100.00
2018-10-09T06:44:52.642Z,100.00
2018-10-09T06:47:19.929Z,100.00
2018-10-09T06:49:47.177Z,100.00
2018-10-09T06:52:14.525Z,100.00
2018-10-09T06:54:42.010Z,100.00
2018-10-09T06:57:09.287Z,100.00
2018-10-09T06:59:36.744Z,100.00
2018-10-09T07:02:04.101Z,100.00
2018-10-09T07:04:31.651Z,100.00
2018-10-09T07:07:02.389Z,100.00
2018-10-09T07:09:33.098Z,100.00
2018-10-09T07:12:00.393Z,100.00
2018-10-09T07:14:27.753Z,100.00
2018-10-09T07:16:55.126Z,100.00
2018-10-09T07:19:22.472Z,100.00
2018-10-09T07:21:49.857Z,100.00
2018-10-09T07:24:17.180Z,100.00
2018-10-09T07:26:44.561Z,100.00
2018-10-09T07:29:11.966Z,100.00
2018-10-09T07:31:39.329Z,100.00
2018-10-09T07:34:06.734Z,100.00
2018-10-09T07:36:34.094Z,100.00
2018-10-09T07:39:01.405Z,100.00
2018-10-09T07:41:28.809Z,100.00
2018-10-09T07:43:56.263Z,100.00
2018-10-09T07:46:23.545Z,100.00
2018-10-09T07:48:51.011Z,100.00
2018-10-09T07:51:18.390Z,100.00
2018-10-09T07:53:45.676Z,100.00
2018-10-09T07:56:13.059Z,100.00
2018-10-09T07:58:40.416Z,100.00
2018-10-09T08:01:07.887Z,100.00
2018-10-09T08:03:35.249Z,100.00
2018-10-09T08:06:02.614Z,100.00
2018-10-09T08:08:29.993Z,100.00
2018-10-09T08:10:57.398Z,100.00
2018-10-09T08:13:24.817Z,100.00
2018-10-09T08:15:52.258Z,100.00
2018-10-09T08:18:19.525Z,100.00
2018-10-09T08:20:46.923Z,100.00
2018-10-09T08:23:14.304Z,100.00
2018-10-09T08:25:41.722Z,100.00
2018-10-09T08:28:09.162Z,100.00
2018-10-09T08:30:36.401Z,100.00
2018-10-09T08:33:03.965Z,100.00
2018-10-09T08:35:31.360Z,100.00
2018-10-09T08:37:58.691Z,100.00
2018-10-09T08:40:26.178Z,99.90
2018-10-09T08:42:53.482Z,100.00
2018-10-09T08:45:21.062Z,98.64
2018-10-09T08:47:48.523Z,100.00
2018-10-09T08:50:15.874Z,99.53
2018-10-09T08:52:43.254Z,100.00
2018-10-09T08:55:10.940Z,99.68
2018-10-09T08:57:38.291Z,100.00
2018-10-09T09:00:06.416Z,100.00
2018-10-09T09:02:33.801Z,100.00
2018-10-09T09:05:01.242Z,100.00
2018-10-09T09:07:28.610Z,100.00
2018-10-09T09:09:56.026Z,100.00
2018-10-09T09:12:23.473Z,100.00
2018-10-09T09:14:50.862Z,98.79
2018-10-09T09:17:18.210Z,98.00
2018-10-09T09:19:45.606Z,97.70
2018-10-09T09:22:13.020Z,97.49
2018-10-09T09:24:40.430Z,97.41
2018-10-09T09:27:08.008Z,98.79
2018-10-09T09:29:35.230Z,98.60
2018-10-09T09:32:02.581Z,96.92
2018-10-09T09:34:29.947Z,97.89
2018-10-09T09:36:57.387Z,97.62
2018-10-09T09:39:24.802Z,97.28
2018-10-09T09:41:52.316Z,96.74
2018-10-09T09:44:19.740Z,96.53
2018-10-09T09:46:47.163Z,95.21
2018-10-09T09:49:14.502Z,94.17
2018-10-09T09:51:41.949Z,92.77
2018-10-09T09:54:09.307Z,92.38
2018-10-09T09:56:36.721Z,93.09
2018-10-09T09:59:04.169Z,93.14
2018-10-09T10:01:36.962Z,93.15
2018-10-09T10:04:04.391Z,94.18
2018-10-09T10:06:31.788Z,93.25
2018-10-09T10:08:59.156Z,92.93
2018-10-09T10:11:26.528Z,93.18
2018-10-09T10:13:53.894Z,91.87
2018-10-09T10:16:21.465Z,92.30
2018-10-09T10:18:48.859Z,91.90
2018-10-09T10:21:16.600Z,90.21
2018-10-09T10:23:43.921Z,90.08
2018-10-09T10:26:11.292Z,90.37
2018-10-09T10:28:38.857Z,90.87
2018-10-09T10:31:06.276Z,89.03
2018-10-09T10:33:33.693Z,87.34
2018-10-09T10:36:01.120Z,87.16
2018-10-09T10:38:28.483Z,88.48
2018-10-09T10:40:55.803Z,87.50
2018-10-09T10:43:23.371Z,86.53
2018-10-09T10:45:50.692Z,86.12
2018-10-09T10:48:18.075Z,85.05
2018-10-09T10:50:45.381Z,86.96
2018-10-09T10:53:12.748Z,86.67
2018-10-09T10:55:40.094Z,86.11
2018-10-09T10:58:07.738Z,85.13
2018-10-09T11:00:35.082Z,85.21
2018-10-09T11:03:02.443Z,85.31
2018-10-09T11:05:29.812Z,83.55
2018-10-09T11:07:57.182Z,83.89
2018-10-09T11:10:24.582Z,82.57
2018-10-09T11:12:51.967Z,82.91
2018-10-09T11:15:19.360Z,82.05
2018-10-09T11:17:46.758Z,80.13
2018-10-09T11:20:14.102Z,79.29
2018-10-09T11:22:41.545Z,79.51
2018-10-09T11:25:08.989Z,79.22
2018-10-09T11:27:36.425Z,79.05
2018-10-09T11:30:04.289Z,79.50
2018-10-09T11:32:31.665Z,77.30
2018-10-09T11:34:59.013Z,75.69
2018-10-09T11:37:26.391Z,74.76
2018-10-09T11:39:53.676Z,73.50
2018-10-09T11:42:21.156Z,72.33
2018-10-09T11:44:48.631Z,71.68
2018-10-09T11:47:16.049Z,72.14
2018-10-09T11:49:43.518Z,72.27
2018-10-09T11:52:10.916Z,73.77
2018-10-09T11:54:38.269Z,75.12
2018-10-09T11:57:05.685Z,73.61
2018-10-09T11:59:33.006Z,73.71
2018-10-09T12:02:00.471Z,72.54
2018-10-09T12:04:27.882Z,71.10
2018-10-09T12:06:55.282Z,72.61
2018-10-09T12:09:22.664Z,73.57
2018-10-09T12:11:50.162Z,73.74
2018-10-09T12:14:17.466Z,73.79
2018-10-09T12:16:44.946Z,74.72
2018-10-09T12:19:12.334Z,72.43
2018-10-09T12:21:39.820Z,71.30
2018-10-09T12:24:07.185Z,71.68
2018-10-09T12:26:34.580Z,69.81
2018-10-09T12:29:01.933Z,68.98
2018-10-09T12:31:29.586Z,69.11
2018-10-09T12:33:56.974Z,70.88
2018-10-09T12:36:24.650Z,70.53
2018-10-09T12:38:52.025Z,70.87
2018-10-09T12:41:19.511Z,68.37
2018-10-09T12:43:46.938Z,67.20
2018-10-09T12:46:14.379Z,65.47
2018-10-09T12:48:41.769Z,65.59
2018-10-09T12:51:09.212Z,63.79
2018-10-09T12:53:36.575Z,61.62
2018-10-09T12:56:03.992Z,62.20
2018-10-09T12:58:31.387Z,61.30
2018-10-09T13:00:58.790Z,59.29
2018-10-09T13:03:26.222Z,56.96
2018-10-09T13:05:53.784Z,59.85
2018-10-09T13:08:21.524Z,60.73
2018-10-09T13:10:49.006Z,58.20
2018-10-09T13:13:16.513Z,58.62
2018-10-09T13:15:43.903Z,57.89
2018-10-09T13:18:11.294Z,57.64
2018-10-09T13:20:38.732Z,59.01
2018-10-09T13:23:07.487Z,57.97
2018-10-09T13:25:35.090Z,55.79
2018-10-09T13:28:02.525Z,55.53
2018-10-09T13:30:30.036Z,55.92
2018-10-09T13:32:57.478Z,55.48
2018-10-09T13:35:25.173Z,55.33
2018-10-09T13:37:52.742Z,53.59
2018-10-09T13:40:20.272Z,55.30
2018-10-09T13:42:47.877Z,58.85
2018-10-09T13:45:15.388Z,58.81
2018-10-09T13:47:42.992Z,56.90
2018-10-09T13:50:10.423Z,56.25
2018-10-09T13:52:37.914Z,55.94
2018-10-09T13:55:05.592Z,57.54
2018-10-09T13:57:33.046Z,57.58
2018-10-09T14:00:00.484Z,54.80
2018-10-09T14:02:27.964Z,55.39
2018-10-09T14:04:55.426Z,54.11
2018-10-09T14:07:22.876Z,52.67
2018-10-09T14:09:50.354Z,52.00
2018-10-09T14:12:17.789Z,56.27
2018-10-09T14:14:45.194Z,53.60
2018-10-09T14:17:12.858Z,51.51
2018-10-09T14:19:40.248Z,52.34
2018-10-09T14:22:07.729Z,51.55
2018-10-09T14:24:35.516Z,50.22
2018-10-09T14:27:03.147Z,50.53
2018-10-09T14:29:30.541Z,50.31
2018-10-09T14:31:58.309Z,49.40
2018-10-09T14:34:27.842Z,51.12
2018-10-09T14:36:55.940Z,50.16
2018-10-09T14:39:39.458Z,49.05
2018-10-09T14:42:12.556Z,49.78
2018-10-09T14:44:40.264Z,52.18
2018-10-09T14:47:07.742Z,52.88
2018-10-09T14:49:35.244Z,53.40
2018-10-09T14:52:02.771Z,53.36
2018-10-09T14:54:30.326Z,52.66
2018-10-09T14:56:57.824Z,52.44
2018-10-09T14:59:25.315Z,53.28
2018-10-09T15:01:52.683Z,52.35
2018-10-09T15:04:20.255Z,52.51
2018-10-09T15:06:47.822Z,52.25
2018-10-09T15:09:15.337Z,52.25
2018-10-09T15:11:43.486Z,52.52
2018-10-09T15:14:11.238Z,54.31
2018-10-09T15:16:38.850Z,55.46
2018-10-09T15:19:07.100Z,54.20
2018-10-09T15:21:34.718Z,57.61
2018-10-09T15:24:02.190Z,58.65
2018-10-09T15:26:29.673Z,58.84
2018-10-09T15:28:57.314Z,61.67
2018-10-09T15:31:24.746Z,62.82
2018-10-09T15:33:52.195Z,63.80
2018-10-09T15:36:19.752Z,63.10
2018-10-09T15:38:47.782Z,64.31
2018-10-09T15:41:15.307Z,65.28
2018-10-09T15:43:42.672Z,66.71
2018-10-09T15:46:10.090Z,66.16
2018-10-09T15:48:37.588Z,66.84
2018-10-09T15:51:05.082Z,67.67
2018-10-09T15:53:32.533Z,68.46
2018-10-09T15:56:00.067Z,69.24
2018-10-09T15:58:28.358Z,69.47
2018-10-09T16:00:55.736Z,69.15
2018-10-09T16:03:23.871Z,69.58
2018-10-09T16:05:51.837Z,70.00
2018-10-09T16:08:19.282Z,71.27
2018-10-09T16:10:46.800Z,72.13
2018-10-09T16:13:14.226Z,73.12
2018-10-09T16:15:41.701Z,73.39
2018-10-09T16:18:09.286Z,73.72
2018-10-09T16:20:36.800Z,75.85
2018-10-09T16:23:04.135Z,77.91
2018-10-09T16:25:31.562Z,78.88
2018-10-09T16:27:59.146Z,79.12
2018-10-09T16:30:26.660Z,79.33
2018-10-09T16:32:54.293Z,81.40
2018-10-09T16:35:21.742Z,82.85
2018-10-09T16:37:49.189Z,81.87
2018-10-09T16:40:16.661Z,80.72
2018-10-09T16:42:44.121Z,79.23
2018-10-09T16:45:11.493Z,78.18
2018-10-09T16:47:38.920Z,77.42
2018-10-09T16:50:06.291Z,77.25
2018-10-09T16:52:33.690Z,77.18
2018-10-09T16:55:01.052Z,76.62
2018-10-09T16:57:28.550Z,76.57
2018-10-09T16:59:56.024Z,76.52
2018-10-09T17:02:23.491Z,77.54
2018-10-09T17:04:50.944Z,76.99
2018-10-09T17:07:18.778Z,77.51
2018-10-09T17:09:46.284Z,78.32
2018-10-09T17:12:13.799Z,78.42
2018-10-09T17:14:41.269Z,78.73
2018-10-09T17:17:08.705Z,78.89
2018-10-09T17:19:36.248Z,79.95
2018-10-09T17:22:03.766Z,80.45
2018-10-09T17:24:31.431Z,80.57
2018-10-09T17:26:58.941Z,80.26
2018-10-09T17:29:26.610Z,81.00
2018-10-09T17:31:54.228Z,80.55
2018-10-09T17:34:21.660Z,80.83
2018-10-09T17:36:51.551Z,80.32
2018-10-09T17:39:19.120Z,81.29
2018-10-09T17:41:46.693Z,81.29
2018-10-09T17:44:14.167Z,80.99
2018-10-09T17:46:41.671Z,81.60
2018-10-09T17:49:09.115Z,82.33
2018-10-09T17:51:36.514Z,82.73
2018-10-09T17:54:03.914Z,83.48
2018-10-09T17:56:31.425Z,84.17
2018-10-09T17:58:58.847Z,84.00
2018-10-09T18:01:26.324Z,84.55
2018-10-09T18:03:53.818Z,84.59
2018-10-09T18:06:21.270Z,84.39
2018-10-09T18:08:48.864Z,85.05
2018-10-09T18:11:16.386Z,85.46
2018-10-09T18:13:44.044Z,85.00
2018-10-09T18:16:11.531Z,85.93
2018-10-09T18:18:39.036Z,88.08
2018-10-09T18:21:06.617Z,87.67
2018-10-09T18:23:33.989Z,87.84
2018-10-09T18:26:01.866Z,87.94
2018-10-09T18:28:29.452Z,88.15
2018-10-09T18:30:57.232Z,87.92
2018-10-09T18:33:24.667Z,87.62
2018-10-09T18:35:52.201Z,87.04
2018-10-09T18:51:14.322Z,87.18
2018-10-09T18:53:42.044Z,90.16
2018-10-09T18:56:09.615Z,90.27
2018-10-09T18:58:37.172Z,90.10
2018-10-09T19:01:04.829Z,89.78
2018-10-09T19:03:32.413Z,89.20
2018-10-09T19:05:59.992Z,89.81
2018-10-09T19:08:27.528Z,88.83
2018-10-09T19:10:55.087Z,88.54
2018-10-09T19:13:22.602Z,88.68
2018-10-09T19:15:50.092Z,88.65
2018-10-09T19:18:17.672Z,89.57
2018-10-09T19:20:45.177Z,91.59
2018-10-09T19:23:12.838Z,91.97
2018-10-09T19:25:40.355Z,92.12
2018-10-09T19:28:08.459Z,90.83
2018-10-09T19:30:36.230Z,91.47
2018-10-09T19:33:03.768Z,91.00
2018-10-09T19:35:31.350Z,89.82
2018-10-09T19:37:58.783Z,90.83
2018-10-09T19:40:26.276Z,90.30
2018-10-09T19:42:53.823Z,90.32
2018-10-09T19:45:21.392Z,90.79
2018-10-09T19:47:48.832Z,91.47
2018-10-09T19:50:16.237Z,91.69
2018-10-09T19:52:43.710Z,91.71
2018-10-09T19:55:11.198Z,92.33
2018-10-09T19:57:38.577Z,92.01
2018-10-09T20:00:07.075Z,93.31
2018-10-09T20:02:34.478Z,94.24
2018-10-09T20:05:02.134Z,93.30
2018-10-09T20:07:29.557Z,92.92
2018-10-09T20:09:57.058Z,92.63
2018-10-09T20:12:24.710Z,91.81
2018-10-09T20:14:53.462Z,91.44
2018-10-09T20:17:21.166Z,92.00
2018-10-09T20:19:48.588Z,91.98
2018-10-09T20:22:16.126Z,93.36
2018-10-09T20:24:43.660Z,93.00
2018-10-09T20:27:11.156Z,92.00
2018-10-09T20:29:38.683Z,91.64
2018-10-09T20:32:06.365Z,92.04
2018-10-09T20:34:33.894Z,92.34
2018-10-09T20:37:01.464Z,93.37
2018-10-09T20:39:29.373Z,92.72
2018-10-09T20:41:56.913Z,91.95
2018-10-09T20:44:24.262Z,91.01
2018-10-09T20:46:51.752Z,91.70
2018-10-09T20:49:19.194Z,92.42
2018-10-09T20:51:46.638Z,92.08
2018-10-09T20:54:14.053Z,92.03
2018-10-09T20:56:41.515Z,91.32
2018-10-09T20:59:09.044Z,93.82
2018-10-09T21:01:36.582Z,93.00
2018-10-09T21:04:04.049Z,92.31
2018-10-09T21:06:31.617Z,91.67
2018-10-09T21:08:58.988Z,91.75
2018-10-09T21:11:26.273Z,91.34
2018-10-09T21:13:53.753Z,92.44
2018-10-09T21:16:21.049Z,92.77
2018-10-09T21:18:48.359Z,93.97
2018-10-09T21:21:15.779Z,94.15
2018-10-09T21:23:43.002Z,92.85
2018-10-09T21:26:10.449Z,92.45
2018-10-09T21:28:37.724Z,91.31
2018-10-09T21:31:05.144Z,91.18
2018-10-09T21:33:32.448Z,91.06
2018-10-09T21:35:59.723Z,91.23
2018-10-09T21:38:27.147Z,90.81
2018-10-09T21:40:54.432Z,90.64
2018-10-09T21:43:21.817Z,90.56
2018-10-09T21:45:49.168Z,91.15
2018-10-09T21:48:16.434Z,91.49
2018-10-09T21:50:43.755Z,91.78
2018-10-09T21:53:11.226Z,91.71
2018-10-09T21:55:38.623Z,90.71
2018-10-09T21:58:05.970Z,90.62
2018-10-09T22:00:38.983Z,91.20
2018-10-09T22:03:06.265Z,91.18
2018-10-09T22:05:33.569Z,91.23
2018-10-09T22:08:00.816Z,91.59
2018-10-09T22:10:28.055Z,90.84
2018-10-09T22:12:55.695Z,90.34
2018-10-09T22:15:22.915Z,90.56
2018-10-09T22:17:50.251Z,90.84
2018-10-09T22:20:17.553Z,91.52
2018-10-09T22:22:44.853Z,91.00
2018-10-09T22:25:12.141Z,91.69
2018-10-09T22:27:39.485Z,92.01
2018-10-09T22:30:06.822Z,91.11
2018-10-09T22:32:34.080Z,91.11
2018-10-09T22:35:01.660Z,91.72
2018-10-09T22:37:28.981Z,91.38
2018-10-09T22:39:56.377Z,91.00
2018-10-09T22:42:23.621Z,91.68
2018-10-09T22:44:50.893Z,91.25
2018-10-09T22:47:18.147Z,91.73
2018-10-09T22:49:45.406Z,90.84
2018-10-09T22:52:12.688Z,90.78
2018-10-09T22:54:39.945Z,91.00
2018-10-09T22:57:07.244Z,91.05
2018-10-09T22:59:34.522Z,91.29
2018-10-09T23:02:01.807Z,91.57
2018-10-09T23:04:29.073Z,91.89
2018-10-09T23:06:56.383Z,91.98
2018-10-09T23:09:23.596Z,92.30
2018-10-09T23:11:50.844Z,91.82
2018-10-09T23:14:18.118Z,91.11
2018-10-09T23:16:45.372Z,90.10
2018-10-09T23:19:12.632Z,89.47
2018-10-09T23:21:39.921Z,89.56
2018-10-09T23:24:07.232Z,89.36
2018-10-09T23:26:34.507Z,89.74
2018-10-09T23:29:01.812Z,90.34
2018-10-09T23:31:29.172Z,90.69
2018-10-09T23:33:56.439Z,90.66
2018-10-09T23:36:23.730Z,90.35
2018-10-09T23:38:50.989Z,89.96
2018-10-09T23:41:18.183Z,89.82
2018-10-09T23:43:45.605Z,90.57
2018-10-09T23:46:12.904Z,90.85
2018-10-09T23:48:40.215Z,90.26
2018-10-09T23:51:07.501Z,90.49
2018-10-09T23:53:34.924Z,90.08
2018-10-09T23:56:02.184Z,89.35
2018-10-09T23:58:29.422Z,89.68
